Time;durP1;ratioP1;P1;durP2;ratioP2;P2;SDS_P1;SDS_P2;PMS_P1;PMS_P2;Temp;Humidity;BMP_temperature;BMP_pressure;BME280_temperature;BME280_humidity;BME280_pressure;Samples;Min_cycle;Max_cycle;Signal;HPM_P1;HPM_P2
2023/05/13 00:00:00;;;;;;;16.10;10.10;;;;;;;10.37;55.03;101434.79;104263;1279;100356;-79
2023/05/13 00:03:06;;;;;;;17.80;10.10;;;;;;;10.38;55.33;101432.92;104367;1279;100102;-80
2023/05/13 00:05:52;;;;;;;18.90;10.30;;;;;;;10.40;55.11;101434.45;104244;1277;98221;-79
2023/05/13 00:08:37;;;;;;;16.00;9.80;;;;;;;10.41;55.41;101439.34;104050;1276;98615;-80
2023/05/13 00:11:23;;;;;;;16.30;10.30;;;;;;;10.42;55.37;101441.79;103983;1292;102138;-79
2023/05/13 00:14:10;;;;;;;16.60;9.70;;;;;;;10.44;55.13;101445.24;104095;1280;99225;-80
2023/05/13 00:16:57;;;;;;;15.30;10.20;;;;;;;10.46;55.26;101442.93;104098;1276;99035;-79
2023/05/13 00:19:43;;;;;;;14.80;9.10;;;;;;;10.46;55.26;101441.72;104149;1276;98874;-79
2023/05/13 00:22:28;;;;;;;20.30;9.90;;;;;;;10.44;54.99;101443.83;104086;1280;97960;-80
2023/05/13 00:25:14;;;;;;;13.80;10.00;;;;;;;10.42;55.43;101440.66;104183;1276;103093;-81
2023/05/13 00:27:59;;;;;;;14.90;10.70;;;;;;;10.41;55.42;101440.98;104147;1276;99121;-78
2023/05/13 00:30:44;;;;;;;17.20;11.00;;;;;;;10.40;55.68;101440.95;104049;1277;98916;-79
2023/05/13 00:33:30;;;;;;;12.50;9.20;;;;;;;10.39;55.54;101439.81;104067;1276;97988;-78
2023/05/13 00:36:16;;;;;;;14.30;10.50;;;;;;;10.35;55.71;101437.09;104013;1276;97925;-79
2023/05/13 00:39:01;;;;;;;18.10;10.90;;;;;;;10.32;55.96;101441.80;104005;1282;101377;-79
2023/05/13 00:41:47;;;;;;;16.10;10.30;;;;;;;10.28;56.01;101446.85;104160;1280;100009;-79
2023/05/13 00:44:33;;;;;;;19.20;10.60;;;;;;;10.24;55.99;101447.98;103918;1282;99024;-79
2023/05/13 00:47:20;;;;;;;15.90;10.60;;;;;;;10.22;56.20;101445.92;104162;1276;97927;-80
2023/05/13 00:50:07;;;;;;;19.90;10.80;;;;;;;10.20;56.23;101446.33;103879;1279;98526;-79
2023/05/13 00:52:56;;;;;;;15.40;10.50;;;;;;;10.18;56.30;101448.70;104028;1282;101433;-79
2023/05/13 00:55:43;;;;;;;14.00;10.80;;;;;;;10.14;56.51;101448.77;104556;1276;100605;-78
2023/05/13 00:58:28;;;;;;;15.60;11.00;;;;;;;10.09;56.55;101449.53;104638;1276;98049;-81
2023/05/13 01:01:36;;;;;;;20.40;11.90;;;;;;;10.07;56.49;101453.73;104484;1280;97947;-78
2023/05/13 01:04:27;;;;;;;16.40;11.80;;;;;;;10.04;56.78;101453.63;104521;1276;98535;-79
2023/05/13 01:07:34;;;;;;;16.40;11.50;;;;;;;10.04;56.93;101461.48;103997;1280;101424;-79
2023/05/13 01:10:33;;;;;;;20.90;11.30;;;;;;;10.04;56.77;101464.26;104023;1282;99333;-78
2023/05/13 01:13:26;;;;;;;16.90;11.10;;;;;;;10.01;57.19;101465.19;104102;1283;99008;-79
2023/05/13 01:16:38;;;;;;;21.30;12.40;;;;;;;9.97;57.17;101464.57;104088;1282;97953;-80
2023/05/13 01:19:48;;;;;;;18.80;11.20;;;;;;;9.93;57.30;101467.48;104074;1277;98533;-81
2023/05/13 01:22:34;;;;;;;18.40;12.20;;;;;;;9.90;57.73;101473.40;104016;1276;101554;-80
2023/05/13 01:25:20;;;;;;;19.20;13.00;;;;;;;9.84;57.50;101474.88;104131;1282;100417;-80
2023/05/13 01:28:06;;;;;;;21.70;12.10;;;;;;;9.80;57.45;101471.05;104096;1283;98075;-79
2023/05/13 01:30:54;;;;;;;23.50;14.90;;;;;;;9.76;57.39;101471.80;104101;1279;98359;-79
2023/05/13 01:33:42;;;;;;;27.20;15.80;;;;;;;9.76;57.97;101471.50;104176;1280;98098;-79
2023/05/13 01:36:27;;;;;;;29.40;15.30;;;;;;;9.75;58.15;101471.73;104131;1281;101376;-78
2023/05/13 01:39:14;;;;;;;24.60;15.40;;;;;;;9.74;58.19;101472.00;104161;1279;99790;-79
2023/05/13 01:41:59;;;;;;;24.60;14.30;;;;;;;9.72;58.22;101471.69;104164;1279;97899;-79
2023/05/13 01:44:45;;;;;;;22.20;13.70;;;;;;;9.69;58.29;101476.17;104098;1282;98141;-79
2023/05/13 01:47:31;;;;;;;23.00;13.80;;;;;;;9.67;58.52;101480.48;104247;1281;98446;-80
2023/05/13 01:50:17;;;;;;;19.70;13.10;;;;;;;9.66;58.92;101480.44;104202;1276;102712;-79
2023/05/13 01:53:02;;;;;;;17.00;12.50;;;;;;;9.62;59.47;101470.77;104309;1277;100536;-80
2023/05/13 01:55:47;;;;;;;17.70;13.10;;;;;;;9.60;59.62;101473.53;104440;1279;97987;-80
2023/05/13 01:58:33;;;;;;;16.00;11.70;;;;;;;9.58;59.73;101475.05;104377;1277;97972;-78
2023/05/13 02:01:19;;;;;;;18.80;13.20;;;;;;;9.54;59.75;101474.51;104938;1276;98455;-80
2023/05/13 02:04:05;;;;;;;19.90;13.20;;;;;;;9.52;60.08;101469.03;104399;1276;102319;-79
2023/05/13 02:06:50;;;;;;;19.30;13.10;;;;;;;9.45;60.39;101468.66;104048;1276;99157;-81
2023/05/13 02:09:35;;;;;;;21.70;15.50;;;;;;;9.40;60.18;101474.45;103954;1277;98375;-80
2023/05/13 02:12:25;;;;;;;22.70;14.40;;;;;;;9.37;60.38;101473.44;104116;1277;98065;-79
2023/05/13 02:15:11;;;;;;;19.20;14.40;;;;;;;9.34;60.61;101469.13;104120;1276;98382;-79
2023/05/13 02:17:56;;;;;;;27.70;16.40;;;;;;;9.30;61.02;101469.88;104092;1282;102509;-78
2023/05/13 02:20:41;;;;;;;21.20;14.90;;;;;;;9.24;60.99;101473.18;104030;1276;99248;-80
2023/05/13 02:23:26;;;;;;;23.80;14.10;;;;;;;9.18;60.96;101481.80;104369;1277;99098;-81
2023/05/13 02:26:14;;;;;;;18.90;13.60;;;;;;;9.12;61.08;101488.30;104589;1280;98011;-79
2023/05/13 02:29:00;;;;;;;21.20;14.60;;;;;;;9.06;61.04;101487.34;104126;1276;99410;-78
2023/05/13 02:31:45;;;;;;;21.90;13.50;;;;;;;9.00;61.29;101483.38;103947;1276;101506;-79
2023/05/13 02:34:30;;;;;;;17.50;12.60;;;;;;;8.94;61.29;101482.31;104024;1277;100110;-78
2023/05/13 02:37:16;;;;;;;20.90;13.40;;;;;;;8.89;61.47;101478.36;104078;1283;98020;-78
2023/05/13 02:40:04;;;;;;;20.90;14.10;;;;;;;8.86;62.41;101478.73;103978;1280;98749;-79
2023/05/13 02:42:50;;;;;;;24.90;13.70;;;;;;;8.76;62.73;101483.29;104174;1276;97928;-80
2023/05/13 02:45:39;;;;;;;21.20;13.50;;;;;;;8.69;62.79;101480.68;104275;1276;101382;-79
2023/05/13 02:48:25;;;;;;;26.20;14.70;;;;;;;8.62;62.90;101478.85;103966;1276;107894;-79
2023/05/13 02:51:11;;;;;;;18.90;13.30;;;;;;;8.60;62.89;101482.61;104100;1276;97976;-80
2023/05/13 02:53:57;;;;;;;17.10;12.80;;;;;;;8.58;63.17;101483.04;104127;1276;98555;-79
2023/05/13 02:56:44;;;;;;;18.50;12.80;;;;;;;8.54;63.37;101483.02;103988;1277;100112;-80
2023/05/13 02:59:30;;;;;;;19.70;14.00;;;;;;;8.52;63.99;101485.56;104107;1279;101538;-79
2023/05/13 03:02:16;;;;;;;22.40;14.10;;;;;;;8.47;64.48;101483.88;104168;1277;99099;-78
2023/05/13 03:05:03;;;;;;;16.50;12.60;;;;;;;8.45;64.93;101483.70;104129;1276;98742;-77
2023/05/13 03:07:48;;;;;;;20.00;13.90;;;;;;;8.44;65.05;101481.34;104220;1280;97988;-80
2023/05/13 03:10:34;;;;;;;21.80;12.40;;;;;;;8.41;65.17;101482.58;104273;1276;100011;-79
2023/05/13 03:13:20;;;;;;;20.80;13.90;;;;;;;8.39;65.14;101483.07;104227;1276;101413;-80
2023/05/13 03:16:06;;;;;;;21.10;14.10;;;;;;;8.36;65.26;101482.73;104199;1280;100378;-78
2023/05/13 03:18:51;;;;;;;20.10;13.20;;;;;;;8.34;65.74;101484.28;104253;1276;98336;-79
2023/05/13 03:21:37;;;;;;;22.50;14.80;;;;;;;8.34;65.98;101483.80;104207;1276;98332;-80
2023/05/13 03:24:26;;;;;;;19.00;13.30;;;;;;;8.29;66.27;101482.85;104261;1276;97896;-80
2023/05/13 03:27:13;;;;;;;16.90;11.80;;;;;;;8.23;66.43;101486.05;104203;1276;102659;-79
2023/05/13 03:29:58;;;;;;;17.00;12.20;;;;;;;8.19;66.74;101487.72;104194;1280;99213;-79
2023/05/13 03:32:44;;;;;;;16.40;12.70;;;;;;;8.15;67.00;101486.87;104193;1280;99040;-78
2023/05/13 03:35:30;;;;;;;18.70;13.20;;;;;;;8.13;67.01;101482.95;104133;1276;143988;-80
2023/05/13 03:38:16;;;;;;;20.50;13.00;;;;;;;8.14;67.37;101487.83;104214;1277;97925;-80
2023/05/13 03:41:05;;;;;;;16.60;12.70;;;;;;;8.16;67.87;101488.95;104244;1277;102371;-79
2023/05/13 03:43:50;;;;;;;18.50;13.10;;;;;;;8.15;68.14;101486.67;104127;1277;99192;-80
2023/05/13 03:46:36;;;;;;;25.30;14.50;;;;;;;8.15;68.40;101482.77;104469;1276;99040;-80
2023/05/13 03:49:22;;;;;;;20.70;13.70;;;;;;;8.20;68.63;101487.59;104176;1280;98025;-80
2023/05/13 03:52:07;;;;;;;19.70;13.30;;;;;;;8.29;68.97;101489.25;104279;1282;98751;-79
2023/05/13 03:54:53;;;;;;;19.00;13.90;;;;;;;8.38;69.01;101496.06;104409;1277;102772;-81
2023/05/13 03:57:38;;;;;;;22.20;14.00;;;;;;;8.44;68.85;101499.70;104479;1276;99879;-80
2023/05/13 04:00:23;;;;;;;21.70;14.00;;;;;;;8.51;68.96;101501.25;104195;1276;98549;-79
2023/05/13 04:03:09;;;;;;;21.00;13.80;;;;;;;8.60;68.87;101504.36;104280;1277;97951;-79
2023/05/13 04:05:54;;;;;;;17.50;13.70;;;;;;;8.66;69.04;101506.80;104166;1277;98446;-79
2023/05/13 04:08:40;;;;;;;23.40;14.40;;;;;;;8.73;69.11;101508.34;104067;1280;101390;-80
2023/05/13 04:11:25;;;;;;;23.00;15.20;;;;;;;8.84;69.39;101511.21;104187;1283;99195;-80
2023/05/13 04:14:13;;;;;;;23.50;14.10;;;;;;;8.95;69.47;101512.23;104112;1276;98691;-79
2023/05/13 04:16:58;;;;;;;21.40;13.80;;;;;;;9.06;69.47;101505.74;104165;1277;98072;-79
2023/05/13 04:19:44;;;;;;;21.20;14.10;;;;;;;9.15;69.33;101501.05;104043;1276;97918;-78
2023/05/13 04:22:29;;;;;;;21.20;14.30;;;;;;;9.24;69.27;101499.67;104080;1281;101513;-79
2023/05/13 04:25:14;;;;;;;18.10;12.70;;;;;;;9.34;69.22;101506.56;104183;1281;100428;-79
2023/05/13 04:28:00;;;;;;;18.60;13.30;;;;;;;9.42;69.70;101506.44;104065;1282;98091;-79
2023/05/13 04:30:51;;;;;;;20.70;13.90;;;;;;;9.50;69.77;101501.90;104078;1276;98677;-78
2023/05/13 04:33:37;;;;;;;21.30;13.30;;;;;;;9.58;69.76;101502.98;104083;1276;97998;-78
2023/05/13 04:36:23;;;;;;;21.50;13.20;;;;;;;9.68;69.45;101507.88;103986;1276;101393;-79
2023/05/13 04:39:09;;;;;;;18.20;12.80;;;;;;;9.77;69.47;101505.09;104185;1280;100178;-80
2023/05/13 04:41:55;;;;;;;20.20;13.60;;;;;;;9.88;69.17;101509.45;104187;1276;99041;-79
2023/05/13 04:44:41;;;;;;;23.70;14.40;;;;;;;9.99;69.38;101515.96;104191;1277;98215;-80
2023/05/13 04:47:27;;;;;;;19.00;13.70;;;;;;;10.08;69.81;101513.93;104921;1277;98660;-79
2023/05/13 04:50:13;;;;;;;22.40;14.10;;;;;;;10.17;69.93;101514.42;104546;1276;102639;-79
2023/05/13 04:52:59;;;;;;;20.80;13.10;;;;;;;10.25;69.74;101515.00;104265;1279;99197;-80
2023/05/13 04:55:47;;;;;;;20.70;13.40;;;;;;;10.34;70.29;101512.95;104330;1281;98637;-79
2023/05/13 04:58:33;;;;;;;18.60;12.90;;;;;;;10.44;70.36;101514.58;104293;1276;98084;-79
2023/05/13 05:01:19;;;;;;;18.50;12.30;;;;;;;10.53;70.34;101514.80;104587;1282;99075;-79
2023/05/13 05:04:06;;;;;;;18.80;13.40;;;;;;;10.64;70.38;101518.41;104083;1281;102749;-79
2023/05/13 05:06:53;;;;;;;24.10;13.60;;;;;;;10.72;70.40;101518.45;104249;1276;99297;-78
2023/05/13 05:09:39;;;;;;;20.40;14.40;;;;;;;10.78;69.79;101518.86;104125;1277;99441;-80
2023/05/13 05:12:24;;;;;;;25.30;14.20;;;;;;;10.85;69.56;101524.89;104555;1276;98002;-79
2023/05/13 05:15:14;;;;;;;21.10;13.10;;;;;;;10.90;69.47;101529.52;104560;1276;98466;-79
2023/05/13 05:18:00;;;;;;;18.70;13.00;;;;;;;10.95;69.16;101530.06;104165;1281;102643;-80
2023/05/13 05:20:45;;;;;;;18.60;13.40;;;;;;;11.01;69.52;101534.66;104627;1276;99127;-80
2023/05/13 05:23:36;;;;;;;20.90;13.80;;;;;;;11.06;69.67;101538.75;104171;1277;99056;-78
2023/05/13 05:26:22;;;;;;;22.70;13.60;;;;;;;11.11;70.03;101543.82;104078;1276;98101;-79
2023/05/13 05:29:08;;;;;;;23.10;13.40;;;;;;;11.18;70.07;101547.77;104172;1276;98532;-81
2023/05/13 05:31:53;;;;;;;23.60;14.80;;;;;;;11.23;70.25;101546.67;104721;1276;102633;-81
2023/05/13 05:34:39;;;;;;;20.20;13.90;;;;;;;11.28;70.38;101539.67;104974;1276;99240;-81
2023/05/13 05:37:26;;;;;;;20.60;13.30;;;;;;;11.32;70.52;101541.37;104699;1276;97952;-79
2023/05/13 05:40:12;;;;;;;20.80;14.40;;;;;;;11.36;71.28;101546.30;104089;1278;97992;-79
2023/05/13 05:42:58;;;;;;;23.90;14.10;;;;;;;11.40;71.12;101535.09;104176;1276;99365;-80
2023/05/13 05:45:44;;;;;;;17.50;13.20;;;;;;;11.47;71.08;101526.09;104358;1276;101395;-80
2023/05/13 05:48:33;;;;;;;19.70;12.80;;;;;;;11.61;70.98;101531.08;104034;1276;99174;-79
2023/05/13 05:51:19;;;;;;;19.20;12.40;;;;;;;11.79;70.78;101524.61;104500;1276;99101;-79
2023/05/13 05:54:04;;;;;;;22.40;12.80;;;;;;;11.99;70.57;101526.09;104018;1281;98004;-78
2023/05/13 05:56:50;;;;;;;21.60;12.50;;;;;;;12.19;69.71;101529.00;104048;1282;98421;-80
2023/05/13 05:59:35;;;;;;;18.60;12.20;;;;;;;12.36;68.78;101525.33;104291;1276;102713;-79
2023/05/13 06:02:21;;;;;;;20.50;12.40;;;;;;;12.54;68.31;101528.27;104213;1276;99111;-79
2023/05/13 06:05:07;;;;;;;16.90;11.50;;;;;;;12.70;67.46;101531.41;104204;1280;106948;-80
2023/05/13 06:07:53;;;;;;;16.20;10.90;;;;;;;12.83;67.14;101534.42;104121;1280;97915;-80
2023/05/13 06:10:38;;;;;;;14.20;11.50;;;;;;;12.89;66.00;101536.08;104079;1279;98008;-80
2023/05/13 06:13:24;;;;;;;16.20;11.80;;;;;;;12.91;65.58;101535.20;104117;1277;102596;-80
2023/05/13 06:16:09;;;;;;;17.70;11.70;;;;;;;12.91;65.16;101536.11;104154;1276;100590;-79
2023/05/13 06:18:56;;;;;;;15.50;10.60;;;;;;;12.95;65.23;101540.46;104213;1276;98475;-80
2023/05/13 06:21:44;;;;;;;19.00;11.80;;;;;;;13.06;65.59;101540.13;104111;1280;97995;-79
2023/05/13 06:24:29;;;;;;;16.40;11.40;;;;;;;13.13;65.72;101532.48;104028;1282;98533;-80
2023/05/13 06:27:15;;;;;;;17.00;11.00;;;;;;;13.20;65.41;101533.60;104753;1276;102760;-80
2023/05/13 06:30:02;;;;;;;17.90;11.60;;;;;;;13.25;64.87;101531.65;104851;1277;100008;-80
2023/05/13 06:32:47;;;;;;;18.00;12.20;;;;;;;13.31;64.06;101532.70;104724;1276;98008;-80
2023/05/13 06:35:33;;;;;;;16.40;11.60;;;;;;;13.44;64.37;101530.92;104344;1276;97915;-80
2023/05/13 06:38:22;;;;;;;21.40;12.60;;;;;;;13.63;64.32;101523.87;104276;1276;98546;-79
2023/05/13 06:41:12;;;;;;;18.10;9.80;;;;;;;13.81;63.94;101523.84;104205;1282;101369;-80
2023/05/13 06:43:59;;;;;;;17.30;11.50;;;;;;;13.99;64.01;101521.80;104362;1276;99175;-80
2023/05/13 06:46:47;;;;;;;15.00;10.30;;;;;;;14.16;63.32;101525.98;104370;1277;98589;-80
2023/05/13 06:49:33;;;;;;;17.90;10.10;;;;;;;14.31;63.32;101525.59;104227;1277;98071;-79
2023/05/13 06:52:18;;;;;;;15.40;9.10;;;;;;;14.46;62.45;101526.47;104786;1276;97783;-79
2023/05/13 06:55:04;;;;;;;13.90;9.40;;;;;;;14.59;61.43;101528.95;104248;1276;102238;-80
2023/05/13 06:57:50;;;;;;;12.40;8.80;;;;;;;14.73;61.70;101530.36;104204;1281;99236;-81
2023/05/13 07:00:37;;;;;;;12.80;8.10;;;;;;;14.88;61.73;101527.06;104563;1276;98991;-82
2023/05/13 07:03:23;;;;;;;14.60;9.10;;;;;;;15.04;61.15;101523.98;104769;1277;97896;-86
2023/05/13 07:06:08;;;;;;;18.50;8.70;;;;;;;15.18;60.45;101527.19;104365;1277;98024;-85
2023/05/13 07:08:55;;;;;;;11.00;7.60;;;;;;;15.33;60.18;101524.41;104163;1277;101390;-88
2023/05/13 07:11:41;;;;;;;10.60;8.20;;;;;;;15.48;59.57;101521.59;104603;1282;100404;-86
2023/05/13 07:14:27;;;;;;;12.70;7.50;;;;;;;15.61;58.34;101517.13;104673;1276;97771;-86
2023/05/13 07:17:13;;;;;;;8.70;6.20;;;;;;;15.77;57.94;101517.98;104793;1276;98020;-84
2023/05/13 07:19:58;;;;;;;10.30;6.40;;;;;;;15.92;57.38;101517.17;104623;1279;98650;-86
2023/05/13 07:22:44;;;;;;;13.00;6.50;;;;;;;16.10;57.05;101514.19;104617;1276;101509;-87
2023/05/13 07:25:30;;;;;;;13.20;6.00;;;;;;;16.25;56.61;101511.64;104730;1281;100205;-86
2023/05/13 07:28:15;;;;;;;19.70;7.70;;;;;;;16.41;55.97;101512.32;104911;1276;97960;-87
2023/05/13 07:31:01;;;;;;;9.30;5.60;;;;;;;16.57;54.88;101513.64;104694;1280;98031;-83
2023/05/13 07:33:46;;;;;;;8.90;5.80;;;;;;;16.71;54.39;101509.40;104777;1276;98098;-80
2023/05/13 07:36:32;;;;;;;13.00;7.30;;;;;;;16.86;55.06;101506.15;104569;1276;101407;-84
2023/05/13 07:39:17;;;;;;;12.60;5.90;;;;;;;17.01;54.75;101507.28;104526;1277;99261;-88
2023/05/13 07:42:03;;;;;;;6.60;5.30;;;;;;;17.17;54.47;101506.63;104716;1282;99478;-86
2023/05/13 07:44:49;;;;;;;8.20;4.70;;;;;;;17.33;54.31;101503.85;104709;1276;99344;-88
2023/05/13 07:47:35;;;;;;;7.90;4.60;;;;;;;17.48;53.26;101501.77;105318;1276;98529;-86
2023/05/13 07:50:20;;;;;;;11.10;5.40;;;;;;;17.64;52.13;101500.10;105178;1276;102680;-89
2023/05/13 07:53:06;;;;;;;8.30;5.20;;;;;;;17.77;50.70;101499.83;105018;1281;99059;-83
2023/05/13 07:55:52;;;;;;;7.30;4.50;;;;;;;17.89;50.00;101495.34;104911;1279;99144;-85
2023/05/13 07:58:38;;;;;;;6.20;4.30;;;;;;;18.00;49.42;101496.27;104777;1281;97916;-86
2023/05/13 08:01:23;;;;;;;13.20;4.80;;;;;;;18.13;49.13;101496.67;104605;1282;98488;-83
2023/05/13 08:04:09;;;;;;;7.60;4.30;;;;;;;18.26;48.54;101492.78;105163;1276;101540;-89
2023/05/13 08:06:55;;;;;;;9.10;4.40;;;;;;;18.39;47.51;101495.11;105142;1277;100486;-91
2023/05/13 08:09:41;;;;;;;6.00;3.50;;;;;;;18.54;46.72;101494.15;104940;1275;106876;-88
2023/05/13 08:12:27;;;;;;;7.30;3.30;;;;;;;18.68;46.02;101492.48;104622;1280;97937;-89
2023/05/13 08:15:13;;;;;;;9.60;3.50;;;;;;;18.81;45.11;101488.52;104756;1280;98482;-81
2023/05/13 08:17:58;;;;;;;7.10;3.60;;;;;;;18.92;44.92;101487.42;104798;1276;101454;-83
2023/05/13 08:20:44;;;;;;;6.60;3.70;;;;;;;19.03;44.52;101484.80;104610;1277;100892;-81
2023/05/13 08:23:29;;;;;;;9.30;3.60;;;;;;;19.14;44.18;101483.86;104689;1276;98013;-88
2023/05/13 08:26:15;;;;;;;9.20;3.90;;;;;;;19.26;43.29;101486.11;104434;1284;97989;-84
2023/05/13 08:29:00;;;;;;;7.90;3.50;;;;;;;19.37;42.88;101487.09;104677;1276;98427;-90
2023/05/13 08:31:46;;;;;;;8.50;3.80;;;;;;;19.46;42.57;101485.36;104692;1282;101429;-79
2023/05/13 08:34:32;;;;;;;5.40;3.70;;;;;;;19.55;42.28;101484.58;104926;1276;100453;-80
2023/05/13 08:37:17;;;;;;;5.20;3.60;;;;;;;19.64;41.93;101481.65;104838;1282;98661;-81
2023/05/13 08:40:03;;;;;;;9.00;4.00;;;;;;;19.73;41.42;101481.34;104817;1279;97989;-81
2023/05/13 08:42:52;;;;;;;7.40;4.30;;;;;;;19.81;41.41;101480.77;104865;1276;98440;-81
2023/05/13 08:45:39;;;;;;;8.20;4.30;;;;;;;19.90;41.80;101478.44;104977;1276;101384;-81
2023/05/13 08:48:24;;;;;;;6.10;3.50;;;;;;;20.03;42.20;101482.77;104954;1277;99225;-81
2023/05/13 08:51:11;;;;;;;8.70;3.70;;;;;;;20.12;40.82;101481.85;104940;1276;97899;-79
2023/05/13 08:53:56;;;;;;;9.20;3.60;;;;;;;20.18;40.56;101483.55;105069;1279;97948;-81
2023/05/13 08:56:41;;;;;;;7.20;3.30;;;;;;;20.26;40.40;101477.50;104918;1276;97829;-81
2023/05/13 08:59:27;;;;;;;8.10;3.40;;;;;;;20.34;40.78;101477.15;104954;1280;101358;-81
2023/05/13 09:02:12;;;;;;;5.50;3.40;;;;;;;20.45;40.25;101474.90;104977;1276;99180;-80
2023/05/13 09:05:05;;;;;;;3.80;2.70;;;;;;;20.54;39.87;101475.59;104946;1281;97995;-80
2023/05/13 09:07:51;;;;;;;5.80;3.00;;;;;;;20.58;38.17;101477.92;104835;1277;97998;-80
2023/05/13 09:10:37;;;;;;;4.70;3.20;;;;;;;20.59;38.26;101474.85;105020;1277;99166;-80
2023/05/13 09:13:23;;;;;;;7.60;2.90;;;;;;;20.65;38.42;101470.91;104825;1281;101390;-79
2023/05/13 09:16:11;;;;;;;6.40;3.10;;;;;;;20.70;38.06;101468.78;104875;1276;99192;-81
2023/05/13 09:18:59;;;;;;;6.40;2.70;;;;;;;20.81;39.02;101466.11;104734;1276;97957;-81
2023/05/13 09:21:44;;;;;;;7.10;2.40;;;;;;;20.94;38.12;101458.45;104870;1277;97997;-81
2023/05/13 09:24:30;;;;;;;5.50;1.90;;;;;;;21.06;37.44;101457.79;104902;1281;97921;-89
2023/05/13 09:27:22;;;;;;;2.10;1.90;;;;;;;21.17;37.15;101459.77;104427;1283;102637;-91
2023/05/13 09:30:09;;;;;;;4.50;2.30;;;;;;;21.24;36.17;101456.52;104868;1280;99139;-88
2023/05/13 09:33:07;;;;;;;4.20;2.30;;;;;;;21.26;35.21;101455.30;105029;1276;98813;-88
2023/05/13 09:35:53;;;;;;;2.50;1.80;;;;;;;21.32;35.17;101453.52;104954;1279;97924;-82
2023/05/13 09:38:39;;;;;;;3.70;2.30;;;;;;;21.37;34.57;101451.75;104623;1276;98052;-82
2023/05/13 09:41:29;;;;;;;4.70;2.10;;;;;;;21.29;33.91;101454.11;104635;1277;102669;-82
2023/05/13 09:44:15;;;;;;;5.10;2.10;;;;;;;21.25;34.83;101451.08;104706;1276;99156;-83
2023/05/13 09:47:01;;;;;;;8.40;2.20;;;;;;;21.28;34.46;101449.35;104916;1282;99361;-82
2023/05/13 09:49:54;;;;;;;4.90;2.20;;;;;;;21.37;34.48;101446.13;104544;1276;98062;-82
2023/05/13 09:52:40;;;;;;;2.80;1.80;;;;;;;21.45;34.64;101444.69;104585;1282;98446;-82
2023/05/13 09:55:28;;;;;;;5.30;2.20;;;;;;;21.54;34.34;101442.15;104687;1280;102712;-87
2023/05/13 09:58:14;;;;;;;4.30;2.30;;;;;;;21.68;33.37;101434.06;104474;1277;99135;-84
2023/05/13 10:01:01;;;;;;;8.20;2.70;;;;;;;21.76;33.40;101426.02;104442;1282;98002;-87
2023/05/13 10:03:47;;;;;;;4.60;2.20;;;;;;;21.77;34.17;101425.45;104774;1277;98026;-88
2023/05/13 10:06:34;;;;;;;3.50;2.10;;;;;;;21.90;33.93;101424.41;105896;1277;99575;-86
2023/05/13 10:09:21;;;;;;;4.60;2.70;;;;;;;22.05;34.29;101426.22;104571;1277;101377;-85
2023/05/13 10:12:11;;;;;;;6.10;2.80;;;;;;;22.15;33.65;101419.49;104593;1279;100423;-85
2023/05/13 10:14:57;;;;;;;4.40;2.30;;;;;;;22.11;33.03;101414.88;104668;1277;98014;-84
2023/05/13 10:21:15;;;;;;;6.40;2.30;;;;;;;22.03;33.91;101409.65;104762;1282;98869;-88
2023/05/13 10:24:02;;;;;;;6.00;2.20;;;;;;;22.09;33.63;101406.60;104969;1282;103299;-91
2023/05/13 10:26:51;;;;;;;3.00;1.90;;;;;;;22.05;33.46;101408.33;105003;1285;101004;-87
2023/05/13 10:29:38;;;;;;;3.80;2.30;;;;;;;21.99;33.51;101402.96;104994;1276;98482;-89
2023/05/13 10:32:25;;;;;;;4.10;2.20;;;;;;;21.96;33.17;101400.38;104988;1283;98370;-88
2023/05/13 10:35:14;;;;;;;4.90;2.20;;;;;;;21.89;32.48;101404.02;104812;1276;97986;-86
2023/05/13 10:38:03;;;;;;;5.40;2.50;;;;;;;21.81;32.61;101400.22;104592;1286;101361;-86
2023/05/13 10:41:03;;;;;;;5.10;1.80;;;;;;;21.72;32.69;101397.52;104729;1276;100389;-87
2023/05/13 10:43:56;;;;;;;3.90;2.20;;;;;;;21.65;33.07;101398.38;105065;1276;98360;-90
2023/05/13 10:46:42;;;;;;;5.10;1.90;;;;;;;21.61;33.65;101398.80;105011;1276;97958;-88
2023/05/13 10:49:33;;;;;;;4.10;2.30;;;;;;;21.63;33.48;101392.80;105121;1282;98404;-90
2023/05/13 10:52:19;;;;;;;;;;;;;;;21.64;32.89;101389.70;105038;1276;102662;-88
2023/05/13 10:55:14;;;;;;;3.70;2.00;;;;;;;21.68;33.28;101390.89;105198;1282;99238;-81
2023/05/13 10:58:08;;;;;;;3.90;2.10;;;;;;;21.84;33.63;101388.62;104526;1283;98767;-85
2023/05/13 11:01:15;;;;;;;6.20;2.20;;;;;;;22.00;33.96;101388.58;104559;1278;99811;-84
2023/05/13 11:04:04;;;;;;;4.20;1.90;;;;;;;22.15;33.42;101389.09;104698;1276;98571;-88
2023/05/13 11:06:52;;;;;;;4.40;1.90;;;;;;;22.23;33.24;101390.44;104663;1277;101389;-87
2023/05/13 11:09:38;;;;;;;5.80;2.20;;;;;;;22.28;33.28;101392.06;104758;1276;99548;-87
2023/05/13 11:12:24;;;;;;;2.40;2.00;;;;;;;22.24;31.68;101390.23;104666;1277;98091;-89
2023/05/13 11:15:22;;;;;;;3.10;2.40;;;;;;;22.23;31.53;101386.73;104236;1284;98004;-87
2023/05/13 11:18:08;;;;;;;4.20;2.10;;;;;;;22.33;31.85;101384.90;104354;1277;97997;-86
2023/05/13 11:20:53;;;;;;;4.40;2.50;;;;;;;22.44;32.51;101387.67;104281;1285;102784;-86
2023/05/13 11:23:50;;;;;;;4.10;2.50;;;;;;;22.52;32.64;101388.03;104378;1283;100002;-84
2023/05/13 11:26:51;;;;;;;3.70;2.20;;;;;;;22.53;32.27;101388.66;104309;1283;97944;-84
2023/05/13 11:29:39;;;;;;;4.50;2.80;;;;;;;22.58;32.47;101387.30;104745;1276;98022;-85
2023/05/13 11:32:47;;;;;;;5.60;3.50;;;;;;;22.71;32.77;101382.45;104473;1283;99194;-81
2023/05/13 11:35:33;;;;;;;7.60;2.70;;;;;;;22.90;32.40;101377.35;104465;1279;102654;-86
2023/05/13 11:38:25;;;;;;;2.70;2.00;;;;;;;23.10;31.88;101371.92;104500;1281;99994;-86
2023/05/13 11:41:10;;;;;;;4.10;1.80;;;;;;;23.17;31.33;101372.56;104471;1282;99053;-86
2023/05/13 11:44:02;;;;;;;3.70;2.70;;;;;;;23.17;31.00;101371.52;104343;1277;98017;-86
2023/05/13 11:47:04;;;;;;;9.00;2.10;;;;;;;23.27;31.08;101370.42;104734;1280;98568;-88
2023/05/13 11:49:50;;;;;;;3.70;2.10;;;;;;;23.34;30.94;101374.05;104413;1276;101377;-86
2023/05/13 11:52:36;;;;;;;3.40;2.50;;;;;;;23.31;31.04;101375.54;104418;1276;99106;-88
2023/05/13 11:55:27;;;;;;;3.70;2.30;;;;;;;23.18;30.64;101370.53;104253;1283;97992;-86
2023/05/13 11:58:16;;;;;;;4.20;2.90;;;;;;;23.06;30.89;101372.52;104349;1282;98034;-86
2023/05/13 12:01:02;;;;;;;2.90;2.50;;;;;;;22.96;30.64;101373.42;104456;1280;98017;-89
2023/05/13 12:03:48;;;;;;;5.40;3.40;;;;;;;22.88;30.89;101374.53;104461;1284;102145;-84
2023/05/13 12:06:33;;;;;;;5.40;3.10;;;;;;;22.82;30.77;101374.49;104127;1276;100356;-84
2023/05/13 12:09:21;;;;;;;7.30;2.80;;;;;;;22.76;30.77;101378.65;104343;1282;98971;-78
2023/05/13 12:12:07;;;;;;;6.70;2.00;;;;;;;22.64;30.65;101376.92;103617;1276;98101;-76
2023/05/13 12:14:54;;;;;;;4.30;2.20;;;;;;;22.54;30.86;101375.13;103687;1277;98527;-78
2023/05/13 12:17:39;;;;;;;6.00;2.00;;;;;;;22.48;31.19;101373.77;104138;1280;101403;-83
2023/05/13 12:20:25;;;;;;;3.60;2.00;;;;;;;22.50;31.81;101369.33;104433;1277;100070;-78
2023/05/13 12:23:10;;;;;;;6.50;2.40;;;;;;;22.62;31.90;101366.77;104273;1280;98754;-78
2023/05/13 12:25:56;;;;;;;4.70;2.30;;;;;;;22.64;31.15;101364.73;104067;1277;98031;-79
2023/05/13 12:28:41;;;;;;;4.00;2.70;;;;;;;22.56;30.82;101369.61;104507;1277;98017;-81
2023/05/13 12:31:27;;;;;;;4.40;2.80;;;;;;;22.45;30.84;101367.70;104862;1280;101422;-78
2023/05/13 12:34:29;;;;;;;10.40;3.10;;;;;;;22.37;31.55;101365.27;104189;1290;99147;-79
2023/05/13 12:37:14;;;;;;;5.30;4.30;;;;;;;22.45;31.89;101368.69;104521;1277;98027;-80
2023/05/13 12:40:13;;;;;;;6.10;2.30;;;;;;;22.59;32.07;101366.88;104615;1276;99398;-80
2023/05/13 12:42:59;;;;;;;4.70;2.00;;;;;;;22.67;31.78;101358.56;104633;1280;97915;-79